sensor_id;sensor_type;location;lat;lon;timestamp;P1;durP1;ratioP1;P2;durP2;ratioP2
52396;SDS011;38322;53.108;6.308;2023-06-10T05:01:40;16.33;;;8.27;;
52396;SDS011;38322;53.108;6.308;2023-06-10T05:04:06;14.80;;;8.55;;
52396;SDS011;38322;53.108;6.308;2023-06-10T05:06:31;16.15;;;9.07;;
52396;SDS011;38322;53.108;6.308;2023-06-10T05:08:57;14.07;;;6.90;;
52396;SDS011;38322;53.108;6.308;2023-06-10T05:11:23;13.90;;;7.75;;
52396;SDS011;38322;53.108;6.308;2023-06-10T05:13:49;13.50;;;7.47;;
52396;SDS011;38322;53.108;6.308;2023-06-10T05:16:15;13.90;;;7.32;;
52396;SDS011;38322;53.108;6.308;2023-06-10T05:18:41;13.95;;;7.28;;
52396;SDS011;38322;53.108;6.308;2023-06-10T05:21:06;8.98;;;5.97;;
52396;SDS011;38322;53.108;6.308;2023-06-10T05:23:32;11.00;;;7.20;;
52396;SDS011;38322;53.108;6.308;2023-06-10T05:25:58;10.48;;;5.60;;
52396;SDS011;38322;53.108;6.308;2023-06-10T05:28:25;10.10;;;5.93;;
52396;SDS011;38322;53.108;6.308;2023-06-10T05:30:51;9.50;;;5.18;;
52396;SDS011;38322;53.108;6.308;2023-06-10T05:33:16;11.60;;;6.07;;
52396;SDS011;38322;53.108;6.308;2023-06-10T05:35:42;16.80;;;6.85;;
52396;SDS011;38322;53.108;6.308;2023-06-10T05:38:08;13.35;;;6.00;;
52396;SDS011;38322;53.108;6.308;2023-06-10T05:40:34;8.57;;;5.40;;
52396;SDS011;38322;53.108;6.308;2023-06-10T05:43:00;15.10;;;6.53;;
52396;SDS011;38322;53.108;6.308;2023-06-10T05:45:26;9.88;;;5.57;;
52396;SDS011;38322;53.108;6.308;2023-06-10T05:47:52;12.32;;;5.25;;
52396;SDS011;38322;53.108;6.308;2023-06-10T05:50:18;10.85;;;6.38;;
52396;SDS011;38322;53.108;6.308;2023-06-10T05:52:44;10.98;;;6.13;;
52396;SDS011;38322;53.108;6.308;2023-06-10T05:55:10;13.40;;;6.15;;
52396;SDS011;38322;53.108;6.308;2023-06-10T05:57:36;12.38;;;5.97;;
52396;SDS011;38322;53.108;6.308;2023-06-10T06:00:02;9.05;;;5.65;;
52396;SDS011;38322;53.108;6.308;2023-06-10T06:02:29;9.13;;;5.30;;
52396;SDS011;38322;53.108;6.308;2023-06-10T06:04:55;9.85;;;5.85;;
52396;SDS011;38322;53.108;6.308;2023-06-10T06:07:21;10.25;;;6.03;;
52396;SDS011;38322;53.108;6.308;2023-06-10T06:09:47;11.15;;;6.03;;
52396;SDS011;38322;53.108;6.308;2023-06-10T06:12:13;14.25;;;7.25;;
52396;SDS011;38322;53.108;6.308;2023-06-10T06:14:38;11.25;;;6.07;;
52396;SDS011;38322;53.108;6.308;2023-06-10T06:17:06;9.35;;;5.22;;
52396;SDS011;38322;53.108;6.308;2023-06-10T06:19:32;11.75;;;6.05;;
52396;SDS011;38322;53.108;6.308;2023-06-10T06:21:58;11.60;;;5.80;;
52396;SDS011;38322;53.108;6.308;2023-06-10T06:24:24;12.93;;;6.38;;
52396;SDS011;38322;53.108;6.308;2023-06-10T06:26:50;14.00;;;6.15;;
52396;SDS011;38322;53.108;6.308;2023-06-10T06:29:16;12.73;;;5.50;;
52396;SDS011;38322;53.108;6.308;2023-06-10T06:31:43;9.20;;;5.88;;
52396;SDS011;38322;53.108;6.308;2023-06-10T06:34:09;11.73;;;5.60;;
52396;SDS011;38322;53.108;6.308;2023-06-10T06:36:35;11.65;;;6.15;;
52396;SDS011;38322;53.108;6.308;2023-06-10T06:39:01;11.50;;;6.07;;
52396;SDS011;38322;53.108;6.308;2023-06-10T06:41:27;7.28;;;4.43;;
52396;SDS011;38322;53.108;6.308;2023-06-10T06:43:53;10.77;;;5.35;;
52396;SDS011;38322;53.108;6.308;2023-06-10T06:46:20;10.50;;;6.15;;
52396;SDS011;38322;53.108;6.308;2023-06-10T06:48:46;13.15;;;5.80;;
52396;SDS011;38322;53.108;6.308;2023-06-10T06:51:12;10.82;;;5.70;;
52396;SDS011;38322;53.108;6.308;2023-06-10T06:53:38;13.57;;;5.55;;
52396;SDS011;38322;53.108;6.308;2023-06-10T06:56:09;8.77;;;5.07;;
52396;SDS011;38322;53.108;6.308;2023-06-10T06:58:36;11.25;;;5.60;;
52396;SDS011;38322;53.108;6.308;2023-06-10T07:01:02;12.25;;;4.55;;
52396;SDS011;38322;53.108;6.308;2023-06-10T07:03:28;10.10;;;4.70;;
52396;SDS011;38322;53.108;6.308;2023-06-10T07:05:54;16.10;;;5.25;;
52396;SDS011;38322;53.108;6.308;2023-06-10T07:08:20;9.70;;;6.28;;
52396;SDS011;38322;53.108;6.308;2023-06-10T07:10:45;12.27;;;5.55;;
52396;SDS011;38322;53.108;6.308;2023-06-10T07:13:11;12.57;;;6.40;;
52396;SDS011;38322;53.108;6.308;2023-06-10T07:15:38;14.13;;;6.55;;
52396;SDS011;38322;53.108;6.308;2023-06-10T07:18:04;14.98;;;6.68;;
52396;SDS011;38322;53.108;6.308;2023-06-10T07:20:30;11.98;;;5.72;;
52396;SDS011;38322;53.108;6.308;2023-06-10T07:22:56;13.48;;;5.57;;
52396;SDS011;38322;53.108;6.308;2023-06-10T07:25:21;9.10;;;5.78;;
52396;SDS011;38322;53.108;6.308;2023-06-10T07:27:47;10.50;;;5.13;;
52396;SDS011;38322;53.108;6.308;2023-06-10T07:30:14;12.20;;;5.30;;
52396;SDS011;38322;53.108;6.308;2023-06-10T07:32:40;10.60;;;5.72;;
52396;SDS011;38322;53.108;6.308;2023-06-10T07:35:08;11.98;;;6.10;;
52396;SDS011;38322;53.108;6.308;2023-06-10T07:37:36;12.65;;;6.53;;
52396;SDS011;38322;53.108;6.308;2023-06-10T07:40:02;13.02;;;5.95;;
52396;SDS011;38322;53.108;6.308;2023-06-10T07:42:28;8.80;;;5.55;;
52396;SDS011;38322;53.108;6.308;2023-06-10T07:44:54;10.68;;;5.30;;
52396;SDS011;38322;53.108;6.308;2023-06-10T07:47:20;9.77;;;4.55;;
52396;SDS011;38322;53.108;6.308;2023-06-10T07:49:45;8.10;;;5.60;;
52396;SDS011;38322;53.108;6.308;2023-06-10T07:52:11;8.57;;;4.72;;
52396;SDS011;38322;53.108;6.308;2023-06-10T07:54:37;8.93;;;4.35;;
52396;SDS011;38322;53.108;6.308;2023-06-10T07:57:03;8.30;;;4.68;;
52396;SDS011;38322;53.108;6.308;2023-06-10T07:59:29;8.38;;;5.10;;
52396;SDS011;38322;53.108;6.308;2023-06-10T08:01:55;8.25;;;4.18;;
52396;SDS011;38322;53.108;6.308;2023-06-10T08:04:21;8.93;;;5.00;;
52396;SDS011;38322;53.108;6.308;2023-06-10T08:06:47;7.30;;;4.22;;
52396;SDS011;38322;53.108;6.308;2023-06-10T08:09:13;5.97;;;3.75;;
52396;SDS011;38322;53.108;6.308;2023-06-10T08:11:39;8.35;;;4.40;;
52396;SDS011;38322;53.108;6.308;2023-06-10T08:14:05;9.10;;;5.35;;
52396;SDS011;38322;53.108;6.308;2023-06-10T08:16:31;11.80;;;4.22;;
52396;SDS011;38322;53.108;6.308;2023-06-10T08:18:57;8.85;;;4.78;;
52396;SDS011;38322;53.108;6.308;2023-06-10T08:21:22;6.68;;;4.95;;
52396;SDS011;38322;53.108;6.308;2023-06-10T08:23:52;6.93;;;4.88;;
52396;SDS011;38322;53.108;6.308;2023-06-10T08:26:19;7.68;;;4.05;;
52396;SDS011;38322;53.108;6.308;2023-06-10T08:28:45;9.93;;;4.47;;
52396;SDS011;38322;53.108;6.308;2023-06-10T08:31:11;13.20;;;4.85;;
52396;SDS011;38322;53.108;6.308;2023-06-10T08:33:37;6.68;;;4.07;;
52396;SDS011;38322;53.108;6.308;2023-06-10T08:36:02;7.18;;;3.83;;
52396;SDS011;38322;53.108;6.308;2023-06-10T08:38:28;6.65;;;4.15;;
52396;SDS011;38322;53.108;6.308;2023-06-10T08:40:56;5.60;;;3.55;;
52396;SDS011;38322;53.108;6.308;2023-06-10T08:43:33;8.02;;;3.90;;
52396;SDS011;38322;53.108;6.308;2023-06-10T08:46:06;11.18;;;4.35;;
52396;SDS011;38322;53.108;6.308;2023-06-10T08:48:34;10.30;;;4.80;;
52396;SDS011;38322;53.108;6.308;2023-06-10T08:51:04;7.82;;;4.50;;
52396;SDS011;38322;53.108;6.308;2023-06-10T08:53:31;11.07;;;4.80;;
52396;SDS011;38322;53.108;6.308;2023-06-10T08:56:01;5.18;;;4.20;;
52396;SDS011;38322;53.108;6.308;2023-06-10T08:58:31;10.65;;;4.10;;
52396;SDS011;38322;53.108;6.308;2023-06-10T09:00:58;7.43;;;3.67;;
52396;SDS011;38322;53.108;6.308;2023-06-10T09:03:25;4.68;;;3.40;;
52396;SDS011;38322;53.108;6.308;2023-06-10T09:05:51;6.82;;;3.72;;
52396;SDS011;38322;53.108;6.308;2023-06-10T09:08:18;7.20;;;4.85;;
52396;SDS011;38322;53.108;6.308;2023-06-10T09:10:43;4.68;;;3.45;;
52396;SDS011;38322;53.108;6.308;2023-06-10T09:13:09;9.07;;;5.50;;
52396;SDS011;38322;53.108;6.308;2023-06-10T09:15:35;6.82;;;3.70;;
52396;SDS011;38322;53.108;6.308;2023-06-10T09:18:01;8.35;;;4.25;;
52396;SDS011;38322;53.108;6.308;2023-06-10T09:20:27;6.70;;;3.85;;
52396;SDS011;38322;53.108;6.308;2023-06-10T09:22:53;6.57;;;4.07;;
52396;SDS011;38322;53.108;6.308;2023-06-10T09:25:19;8.13;;;4.18;;
52396;SDS011;38322;53.108;6.308;2023-06-10T09:28:00;6.70;;;3.15;;
52396;SDS011;38322;53.108;6.308;2023-06-10T09:30:27;7.40;;;3.33;;
52396;SDS011;38322;53.108;6.308;2023-06-10T09:32:56;5.47;;;3.05;;
52396;SDS011;38322;53.108;6.308;2023-06-10T09:35:24;6.47;;;3.75;;
52396;SDS011;38322;53.108;6.308;2023-06-10T09:37:57;6.72;;;2.95;;
52396;SDS011;38322;53.108;6.308;2023-06-10T09:40:24;5.50;;;3.65;;
52396;SDS011;38322;53.108;6.308;2023-06-10T09:42:52;5.70;;;3.67;;
52396;SDS011;38322;53.108;6.308;2023-06-10T09:45:20;5.28;;;3.22;;
52396;SDS011;38322;53.108;6.308;2023-06-10T09:47:47;4.07;;;3.67;;
52396;SDS011;38322;53.108;6.308;2023-06-10T09:50:17;12.23;;;3.80;;
52396;SDS011;38322;53.108;6.308;2023-06-10T09:52:43;8.48;;;2.60;;
52396;SDS011;38322;53.108;6.308;2023-06-10T09:55:12;5.70;;;3.75;;
52396;SDS011;38322;53.108;6.308;2023-06-10T09:57:38;5.60;;;3.75;;
52396;SDS011;38322;53.108;6.308;2023-06-10T10:00:07;6.70;;;3.90;;
52396;SDS011;38322;53.108;6.308;2023-06-10T10:02:45;4.68;;;3.58;;
52396;SDS011;38322;53.108;6.308;2023-06-10T10:05:14;8.95;;;2.90;;
52396;SDS011;38322;53.108;6.308;2023-06-10T10:07:41;3.85;;;2.28;;
52396;SDS011;38322;53.108;6.308;2023-06-10T10:10:07;5.55;;;2.45;;
52396;SDS011;38322;53.108;6.308;2023-06-10T10:12:35;2.90;;;2.65;;
52396;SDS011;38322;53.108;6.308;2023-06-10T10:15:02;6.05;;;3.03;;
52396;SDS011;38322;53.108;6.308;2023-06-10T10:17:30;8.15;;;3.22;;
52396;SDS011;38322;53.108;6.308;2023-06-10T10:20:02;6.93;;;3.92;;
52396;SDS011;38322;53.108;6.308;2023-06-10T10:22:31;4.40;;;2.58;;
52396;SDS011;38322;53.108;6.308;2023-06-10T10:25:06;5.30;;;3.17;;
52396;SDS011;38322;53.108;6.308;2023-06-10T10:27:40;4.50;;;3.17;;
52396;SDS011;38322;53.108;6.308;2023-06-10T10:30:10;5.85;;;2.65;;
52396;SDS011;38322;53.108;6.308;2023-06-10T10:32:39;7.20;;;2.88;;
52396;SDS011;38322;53.108;6.308;2023-06-10T10:35:16;8.80;;;2.72;;
52396;SDS011;38322;53.108;6.308;2023-06-10T10:37:46;6.60;;;3.17;;
52396;SDS011;38322;53.108;6.308;2023-06-10T10:40:12;6.28;;;3.00;;
52396;SDS011;38322;53.108;6.308;2023-06-10T10:42:39;3.72;;;2.30;;
52396;SDS011;38322;53.108;6.308;2023-06-10T10:45:06;6.60;;;2.72;;
52396;SDS011;38322;53.108;6.308;2023-06-10T10:47:33;4.60;;;2.50;;
52396;SDS011;38322;53.108;6.308;2023-06-10T10:50:01;5.07;;;2.47;;
52396;SDS011;38322;53.108;6.308;2023-06-10T10:52:52;6.55;;;4.00;;
52396;SDS011;38322;53.108;6.308;2023-06-10T10:55:19;4.68;;;2.38;;
52396;SDS011;38322;53.108;6.308;2023-06-10T10:57:53;4.05;;;2.05;;
52396;SDS011;38322;53.108;6.308;2023-06-10T11:00:26;5.68;;;2.92;;
52396;SDS011;38322;53.108;6.308;2023-06-10T11:05:20;5.68;;;2.60;;
52396;SDS011;38322;53.108;6.308;2023-06-10T11:08:01;8.93;;;3.17;;
52396;SDS011;38322;53.108;6.308;2023-06-10T11:10:29;5.60;;;2.65;;
52396;SDS011;38322;53.108;6.308;2023-06-10T11:12:56;7.95;;;3.13;;
52396;SDS011;38322;53.108;6.308;2023-06-10T11:15:25;6.00;;;2.60;;
52396;SDS011;38322;53.108;6.308;2023-06-10T11:18:06;9.02;;;3.13;;
52396;SDS011;38322;53.108;6.308;2023-06-10T11:20:45;4.88;;;2.90;;
52396;SDS011;38322;53.108;6.308;2023-06-10T11:28:40;4.70;;;1.70;;
52396;SDS011;38322;53.108;6.308;2023-06-10T11:34:00;8.43;;;2.85;;
52396;SDS011;38322;53.108;6.308;2023-06-10T11:36:28;3.95;;;2.08;;
52396;SDS011;38322;53.108;6.308;2023-06-10T11:38:55;2.25;;;1.52;;
52396;SDS011;38322;53.108;6.308;2023-06-10T11:41:23;4.78;;;2.05;;
52396;SDS011;38322;53.108;6.308;2023-06-10T11:43:51;2.25;;;1.10;;
52396;SDS011;38322;53.108;6.308;2023-06-10T11:46:18;3.70;;;1.80;;
52396;SDS011;38322;53.108;6.308;2023-06-10T11:48:51;4.30;;;1.83;;
52396;SDS011;38322;53.108;6.308;2023-06-10T11:51:18;2.55;;;1.45;;
52396;SDS011;38322;53.108;6.308;2023-06-10T11:53:46;4.35;;;2.67;;
52396;SDS011;38322;53.108;6.308;2023-06-10T11:56:13;6.95;;;1.77;;
52396;SDS011;38322;53.108;6.308;2023-06-10T11:58:49;5.35;;;2.30;;
52396;SDS011;38322;53.108;6.308;2023-06-10T12:01:20;3.38;;;1.80;;
52396;SDS011;38322;53.108;6.308;2023-06-10T12:03:47;8.25;;;2.30;;
52396;SDS011;38322;53.108;6.308;2023-06-10T12:06:13;5.63;;;2.22;;
52396;SDS011;38322;53.108;6.308;2023-06-10T12:08:45;3.13;;;2.13;;
52396;SDS011;38322;53.108;6.308;2023-06-10T12:11:12;4.05;;;2.67;;
52396;SDS011;38322;53.108;6.308;2023-06-10T12:13:38;7.97;;;2.88;;
52396;SDS011;38322;53.108;6.308;2023-06-10T12:16:13;4.38;;;2.10;;
52396;SDS011;38322;53.108;6.308;2023-06-10T12:18:39;5.35;;;2.72;;
52396;SDS011;38322;53.108;6.308;2023-06-10T12:21:23;4.13;;;2.33;;
52396;SDS011;38322;53.108;6.308;2023-06-10T12:24:08;5.75;;;1.70;;
52396;SDS011;38322;53.108;6.308;2023-06-10T12:26:38;4.88;;;2.05;;
52396;SDS011;38322;53.108;6.308;2023-06-10T12:29:15;3.78;;;1.52;;
52396;SDS011;38322;53.108;6.308;2023-06-10T12:34:32;5.00;;;2.25;;
52396;SDS011;38322;53.108;6.308;2023-06-10T12:37:01;3.88;;;1.90;;
52396;SDS011;38322;53.108;6.308;2023-06-10T12:39:29;6.55;;;2.63;;
52396;SDS011;38322;53.108;6.308;2023-06-10T12:41:57;6.57;;;2.28;;
52396;SDS011;38322;53.108;6.308;2023-06-10T12:44:28;7.53;;;2.33;;
52396;SDS011;38322;53.108;6.308;2023-06-10T12:46:55;6.13;;;2.20;;
52396;SDS011;38322;53.108;6.308;2023-06-10T12:49:21;4.03;;;2.08;;
52396;SDS011;38322;53.108;6.308;2023-06-10T12:51:47;4.35;;;1.80;;
52396;SDS011;38322;53.108;6.308;2023-06-10T12:54:13;6.20;;;2.25;;
52396;SDS011;38322;53.108;6.308;2023-06-10T12:56:39;2.50;;;1.73;;
52396;SDS011;38322;53.108;6.308;2023-06-10T12:59:05;2.72;;;1.35;;
52396;SDS011;38322;53.108;6.308;2023-06-10T13:01:31;2.38;;;1.60;;
52396;SDS011;38322;53.108;6.308;2023-06-10T13:03:58;3.17;;;1.83;;
52396;SDS011;38322;53.108;6.308;2023-06-10T13:06:24;3.78;;;1.83;;
52396;SDS011;38322;53.108;6.308;2023-06-10T13:08:51;4.45;;;2.40;;
52396;SDS011;38322;53.108;6.308;2023-06-10T13:11:18;5.72;;;2.17;;
52396;SDS011;38322;53.108;6.308;2023-06-10T13:13:43;4.03;;;2.53;;
52396;SDS011;38322;53.108;6.308;2023-06-10T13:16:09;5.40;;;2.47;;
52396;SDS011;38322;53.108;6.308;2023-06-10T13:18:35;6.28;;;2.13;;
52396;SDS011;38322;53.108;6.308;2023-06-10T13:21:03;5.43;;;1.63;;
52396;SDS011;38322;53.108;6.308;2023-06-10T13:23:29;5.15;;;2.78;;
52396;SDS011;38322;53.108;6.308;2023-06-10T13:25:56;2.30;;;2.10;;
52396;SDS011;38322;53.108;6.308;2023-06-10T13:28:22;6.20;;;2.83;;
52396;SDS011;38322;53.108;6.308;2023-06-10T13:30:48;4.15;;;1.88;;
52396;SDS011;38322;53.108;6.308;2023-06-10T13:33:15;6.63;;;2.90;;
52396;SDS011;38322;53.108;6.308;2023-06-10T13:35:41;2.95;;;2.03;;
52396;SDS011;38322;53.108;6.308;2023-06-10T13:38:07;4.13;;;2.53;;
52396;SDS011;38322;53.108;6.308;2023-06-10T13:40:33;3.33;;;2.70;;
52396;SDS011;38322;53.108;6.308;2023-06-10T13:42:59;3.75;;;3.05;;
52396;SDS011;38322;53.108;6.308;2023-06-10T13:45:25;7.68;;;2.92;;
52396;SDS011;38322;53.108;6.308;2023-06-10T13:47:51;8.00;;;3.10;;
52396;SDS011;38322;53.108;6.308;2023-06-10T13:50:17;3.70;;;2.63;;
52396;SDS011;38322;53.108;6.308;2023-06-10T13:52:43;3.92;;;2.60;;
52396;SDS011;38322;53.108;6.308;2023-06-10T13:55:08;8.52;;;3.67;;
52396;SDS011;38322;53.108;6.308;2023-06-10T13:57:34;5.15;;;3.40;;
52396;SDS011;38322;53.108;6.308;2023-06-10T14:00:00;6.03;;;2.97;;
52396;SDS011;38322;53.108;6.308;2023-06-10T14:02:26;7.63;;;3.95;;
52396;SDS011;38322;53.108;6.308;2023-06-10T14:04:52;5.38;;;3.05;;
52396;SDS011;38322;53.108;6.308;2023-06-10T14:07:18;5.43;;;2.33;;
52396;SDS011;38322;53.108;6.308;2023-06-10T14:09:44;4.88;;;2.60;;
52396;SDS011;38322;53.108;6.308;2023-06-10T14:12:10;5.43;;;2.08;;
52396;SDS011;38322;53.108;6.308;2023-06-10T14:14:36;4.45;;;1.77;;
52396;SDS011;38322;53.108;6.308;2023-06-10T14:17:02;5.45;;;2.45;;
52396;SDS011;38322;53.108;6.308;2023-06-10T14:19:30;4.10;;;2.33;;
52396;SDS011;38322;53.108;6.308;2023-06-10T14:21:55;3.22;;;1.20;;
52396;SDS011;38322;53.108;6.308;2023-06-10T14:24:21;2.15;;;1.25;;
52396;SDS011;38322;53.108;6.308;2023-06-10T14:26:47;3.50;;;1.63;;
52396;SDS011;38322;53.108;6.308;2023-06-10T14:29:13;4.28;;;2.28;;
52396;SDS011;38322;53.108;6.308;2023-06-10T14:31:39;4.70;;;2.25;;
52396;SDS011;38322;53.108;6.308;2023-06-10T14:34:06;6.18;;;2.00;;
52396;SDS011;38322;53.108;6.308;2023-06-10T14:36:33;6.40;;;2.03;;
52396;SDS011;38322;53.108;6.308;2023-06-10T14:39:00;4.38;;;1.65;;
52396;SDS011;38322;53.108;6.308;2023-06-10T14:41:26;2.42;;;1.58;;
52396;SDS011;38322;53.108;6.308;2023-06-10T14:43:52;4.00;;;1.58;;
52396;SDS011;38322;53.108;6.308;2023-06-10T14:46:18;3.55;;;1.58;;
52396;SDS011;38322;53.108;6.308;2023-06-10T14:48:46;3.38;;;1.92;;
52396;SDS011;38322;53.108;6.308;2023-06-10T14:51:12;5.93;;;2.78;;
52396;SDS011;38322;53.108;6.308;2023-06-10T14:53:37;6.40;;;2.03;;
52396;SDS011;38322;53.108;6.308;2023-06-10T14:56:03;5.15;;;2.33;;
52396;SDS011;38322;53.108;6.308;2023-06-10T14:58:30;3.55;;;2.25;;
52396;SDS011;38322;53.108;6.308;2023-06-10T15:00:55;4.63;;;1.67;;
52396;SDS011;38322;53.108;6.308;2023-06-10T15:03:21;3.20;;;2.08;;
52396;SDS011;38322;53.108;6.308;2023-06-10T15:05:47;4.18;;;2.45;;
52396;SDS011;38322;53.108;6.308;2023-06-10T15:08:13;3.75;;;2.03;;
52396;SDS011;38322;53.108;6.308;2023-06-10T15:10:39;6.60;;;2.20;;
52396;SDS011;38322;53.108;6.308;2023-06-10T15:13:05;1.95;;;1.52;;
52396;SDS011;38322;53.108;6.308;2023-06-10T15:15:31;4.30;;;2.13;;
52396;SDS011;38322;53.108;6.308;2023-06-10T15:17:57;2.60;;;1.48;;
52396;SDS011;38322;53.108;6.308;2023-06-10T15:20:23;4.97;;;1.85;;
52396;SDS011;38322;53.108;6.308;2023-06-10T15:22:49;4.18;;;2.00;;
52396;SDS011;38322;53.108;6.308;2023-06-10T15:25:15;4.15;;;2.13;;
52396;SDS011;38322;53.108;6.308;2023-06-10T15:27:41;4.47;;;2.47;;
52396;SDS011;38322;53.108;6.308;2023-06-10T15:30:07;6.93;;;2.38;;
52396;SDS011;38322;53.108;6.308;2023-06-10T15:32:34;5.47;;;2.58;;
52396;SDS011;38322;53.108;6.308;2023-06-10T15:34:59;3.70;;;2.00;;
52396;SDS011;38322;53.108;6.308;2023-06-10T15:37:25;3.03;;;1.77;;
52396;SDS011;38322;53.108;6.308;2023-06-10T15:39:51;4.95;;;2.05;;
52396;SDS011;38322;53.108;6.308;2023-06-10T15:42:17;5.70;;;1.98;;
52396;SDS011;38322;53.108;6.308;2023-06-10T15:44:43;7.32;;;2.65;;
52396;SDS011;38322;53.108;6.308;2023-06-10T15:47:09;7.45;;;2.35;;
52396;SDS011;38322;53.108;6.308;2023-06-10T15:49:35;5.57;;;1.83;;
52396;SDS011;38322;53.108;6.308;2023-06-10T15:52:00;8.30;;;2.85;;
52396;SDS011;38322;53.108;6.308;2023-06-10T15:54:26;4.30;;;1.58;;
52396;SDS011;38322;53.108;6.308;2023-06-10T15:56:52;3.50;;;1.95;;
52396;SDS011;38322;53.108;6.308;2023-06-10T15:59:18;8.55;;;1.98;;
52396;SDS011;38322;53.108;6.308;2023-06-10T16:01:44;2.90;;;1.40;;
52396;SDS011;38322;53.108;6.308;2023-06-10T16:04:10;2.38;;;1.35;;
52396;SDS011;38322;53.108;6.308;2023-06-10T16:06:36;3.83;;;1.73;;
52396;SDS011;38322;53.108;6.308;2023-06-10T16:09:02;4.72;;;1.90;;
52396;SDS011;38322;53.108;6.308;2023-06-10T16:11:28;2.95;;;2.38;;
52396;SDS011;38322;53.108;6.308;2023-06-10T16:13:53;7.13;;;2.08;;
52396;SDS011;38322;53.108;6.308;2023-06-10T16:16:19;3.92;;;1.85;;
52396;SDS011;38322;53.108;6.308;2023-06-10T16:18:45;7.55;;;2.35;;
52396;SDS011;38322;53.108;6.308;2023-06-10T16:21:11;4.78;;;2.25;;
52396;SDS011;38322;53.108;6.308;2023-06-10T16:23:37;2.28;;;1.98;;
52396;SDS011;38322;53.108;6.308;2023-06-10T16:26:04;4.40;;;1.80;;
52396;SDS011;38322;53.108;6.308;2023-06-10T16:28:30;2.90;;;1.52;;
52396;SDS011;38322;53.108;6.308;2023-06-10T16:30:56;3.10;;;1.60;;
52396;SDS011;38322;53.108;6.308;2023-06-10T16:33:22;3.28;;;1.55;;
52396;SDS011;38322;53.108;6.308;2023-06-10T16:35:47;1.95;;;1.42;;
52396;SDS011;38322;53.108;6.308;2023-06-10T16:38:13;5.68;;;1.73;;
52396;SDS011;38322;53.108;6.308;2023-06-10T16:40:40;2.28;;;1.38;;
52396;SDS011;38322;53.108;6.308;2023-06-10T16:43:06;2.28;;;1.20;;
52396;SDS011;38322;53.108;6.308;2023-06-10T16:45:32;3.67;;;1.52;;
52396;SDS011;38322;53.108;6.308;2023-06-10T16:47:58;3.45;;;0.93;;
52396;SDS011;38322;53.108;6.308;2023-06-10T16:50:23;2.30;;;1.63;;
52396;SDS011;38322;53.108;6.308;2023-06-10T16:52:49;4.38;;;1.80;;
52396;SDS011;38322;53.108;6.308;2023-06-10T16:55:15;2.88;;;1.38;;
52396;SDS011;38322;53.108;6.308;2023-06-10T16:57:41;4.63;;;1.20;;
52396;SDS011;38322;53.108;6.308;2023-06-10T17:00:07;6.30;;;1.95;;
52396;SDS011;38322;53.108;6.308;2023-06-10T17:02:33;3.13;;;1.60;;
52396;SDS011;38322;53.108;6.308;2023-06-10T17:04:59;4.53;;;2.05;;
52396;SDS011;38322;53.108;6.308;2023-06-10T17:07:25;4.22;;;1.25;;
52396;SDS011;38322;53.108;6.308;2023-06-10T17:09:51;2.25;;;1.50;;
52396;SDS011;38322;53.108;6.308;2023-06-10T17:12:17;3.05;;;1.40;;
52396;SDS011;38322;53.108;6.308;2023-06-10T17:14:42;3.17;;;1.42;;
52396;SDS011;38322;53.108;6.308;2023-06-10T17:17:08;2.63;;;1.05;;
52396;SDS011;38322;53.108;6.308;2023-06-10T17:19:35;4.80;;;1.40;;
52396;SDS011;38322;53.108;6.308;2023-06-10T17:22:00;3.20;;;1.20;;
52396;SDS011;38322;53.108;6.308;2023-06-10T17:24:26;7.70;;;1.55;;
52396;SDS011;38322;53.108;6.308;2023-06-10T17:26:52;6.32;;;1.95;;
52396;SDS011;38322;53.108;6.308;2023-06-10T17:29:18;5.55;;;1.70;;
52396;SDS011;38322;53.108;6.308;2023-06-10T17:31:44;4.78;;;1.42;;
52396;SDS011;38322;53.108;6.308;2023-06-10T17:34:10;3.42;;;1.50;;
52396;SDS011;38322;53.108;6.308;2023-06-10T17:36:36;5.32;;;1.92;;
52396;SDS011;38322;53.108;6.308;2023-06-10T17:39:02;8.13;;;1.98;;
52396;SDS011;38322;53.108;6.308;2023-06-10T17:41:28;6.53;;;2.03;;
52396;SDS011;38322;53.108;6.308;2023-06-10T17:43:53;5.03;;;1.85;;
52396;SDS011;38322;53.108;6.308;2023-06-10T17:46:19;3.92;;;2.13;;
52396;SDS011;38322;53.108;6.308;2023-06-10T17:48:45;5.20;;;1.95;;
52396;SDS011;38322;53.108;6.308;2023-06-10T17:51:12;8.00;;;1.75;;
52396;SDS011;38322;53.108;6.308;2023-06-10T17:53:38;5.38;;;2.15;;
52396;SDS011;38322;53.108;6.308;2023-06-10T17:56:04;5.18;;;2.13;;
52396;SDS011;38322;53.108;6.308;2023-06-10T17:58:30;7.07;;;1.75;;
52396;SDS011;38322;53.108;6.308;2023-06-10T18:00:56;5.35;;;1.92;;
52396;SDS011;38322;53.108;6.308;2023-06-10T18:03:24;7.60;;;2.42;;
52396;SDS011;38322;53.108;6.308;2023-06-10T18:05:53;4.85;;;1.98;;
52396;SDS011;38322;53.108;6.308;2023-06-10T18:08:19;4.47;;;1.45;;
52396;SDS011;38322;53.108;6.308;2023-06-10T18:10:46;7.40;;;2.40;;
52396;SDS011;38322;53.108;6.308;2023-06-10T18:13:12;6.45;;;2.30;;
52396;SDS011;38322;53.108;6.308;2023-06-10T18:15:38;5.68;;;2.33;;
52396;SDS011;38322;53.108;6.308;2023-06-10T18:18:04;10.00;;;2.22;;
52396;SDS011;38322;53.108;6.308;2023-06-10T18:20:30;9.13;;;2.63;;
52396;SDS011;38322;53.108;6.308;2023-06-10T18:22:57;11.35;;;3.00;;
52396;SDS011;38322;53.108;6.308;2023-06-10T18:25:23;9.98;;;2.78;;
52396;SDS011;38322;53.108;6.308;2023-06-10T18:27:49;7.28;;;2.00;;
52396;SDS011;38322;53.108;6.308;2023-06-10T18:30:15;7.78;;;3.00;;
52396;SDS011;38322;53.108;6.308;2023-06-10T18:32:40;6.78;;;2.60;;
52396;SDS011;38322;53.108;6.308;2023-06-10T18:35:07;7.60;;;2.85;;
52396;SDS011;38322;53.108;6.308;2023-06-10T18:37:33;5.15;;;2.88;;
52396;SDS011;38322;53.108;6.308;2023-06-10T18:39:59;11.38;;;3.70;;
52396;SDS011;38322;53.108;6.308;2023-06-10T18:42:25;10.18;;;3.22;;
52396;SDS011;38322;53.108;6.308;2023-06-10T18:44:51;9.45;;;3.22;;
52396;SDS011;38322;53.108;6.308;2023-06-10T18:47:17;8.30;;;2.72;;
52396;SDS011;38322;53.108;6.308;2023-06-10T18:49:43;15.10;;;3.53;;
52396;SDS011;38322;53.108;6.308;2023-06-10T18:52:10;9.15;;;2.88;;
52396;SDS011;38322;53.108;6.308;2023-06-10T18:54:36;5.78;;;2.80;;
52396;SDS011;38322;53.108;6.308;2023-06-10T18:57:01;6.60;;;2.90;;
52396;SDS011;38322;53.108;6.308;2023-06-10T18:59:27;8.52;;;3.00;;
52396;SDS011;38322;53.108;6.308;2023-06-10T19:01:53;8.48;;;3.17;;
52396;SDS011;38322;53.108;6.308;2023-06-10T19:04:19;10.52;;;3.90;;
52396;SDS011;38322;53.108;6.308;2023-06-10T19:06:45;10.82;;;4.05;;
52396;SDS011;38322;53.108;6.308;2023-06-10T19:09:12;7.00;;;2.90;;
52396;SDS011;38322;53.108;6.308;2023-06-10T19:11:38;12.02;;;3.28;;
52396;SDS011;38322;53.108;6.308;2023-06-10T19:14:04;7.90;;;3.22;;
52396;SDS011;38322;53.108;6.308;2023-06-10T19:16:32;10.85;;;4.35;;
52396;SDS011;38322;53.108;6.308;2023-06-10T19:18:57;11.73;;;3.50;;
52396;SDS011;38322;53.108;6.308;2023-06-10T19:21:23;8.93;;;3.28;;
52396;SDS011;38322;53.108;6.308;2023-06-10T19:23:49;9.02;;;3.00;;
52396;SDS011;38322;53.108;6.308;2023-06-10T19:26:15;8.48;;;3.78;;
52396;SDS011;38322;53.108;6.308;2023-06-10T19:28:41;8.98;;;3.03;;
52396;SDS011;38322;53.108;6.308;2023-06-10T19:31:07;11.05;;;3.83;;
52396;SDS011;38322;53.108;6.308;2023-06-10T19:33:33;9.23;;;3.78;;
52396;SDS011;38322;53.108;6.308;2023-06-10T19:35:59;10.65;;;4.38;;
52396;SDS011;38322;53.108;6.308;2023-06-10T19:38:25;8.95;;;3.38;;
52396;SDS011;38322;53.108;6.308;2023-06-10T19:40:51;10.88;;;4.35;;
52396;SDS011;38322;53.108;6.308;2023-06-10T19:43:16;5.72;;;3.00;;
52396;SDS011;38322;53.108;6.308;2023-06-10T19:45:42;11.23;;;4.32;;
52396;SDS011;38322;53.108;6.308;2023-06-10T19:48:08;9.07;;;4.47;;
52396;SDS011;38322;53.108;6.308;2023-06-10T19:50:34;8.77;;;3.67;;
52396;SDS011;38322;53.108;6.308;2023-06-10T19:53:00;11.70;;;3.45;;
52396;SDS011;38322;53.108;6.308;2023-06-10T19:55:26;10.90;;;3.38;;
52396;SDS011;38322;53.108;6.308;2023-06-10T19:57:52;9.30;;;3.90;;
